Time;durP1;ratioP1;P1;durP2;ratioP2;P2;SDS_P1;SDS_P2;PMS_P1;PMS_P2;Temp;Humidity;BMP_temperature;BMP_pressure;BME280_temperature;BME280_humidity;BME280_pressure;Samples;Min_cycle;Max_cycle;Signal;HPM_P1;HPM_P2
2021/06/23 00:02:38;;;;;;;;;;;26.50;43.30;;;;;;8264099;28;20073;-48
2021/06/23 00:06:38;;;;;;;1.57;1.30;;;26.50;43.40;;;;;;8267900;28;20298;-48
2021/06/23 00:10:39;;;;;;;;;;;26.50;43.40;;;;;;8263388;28;20488;-48
2021/06/23 00:14:39;;;;;;;2.10;1.30;;;26.50;43.40;;;;;;8263181;28;19918;-48
2021/06/23 00:18:40;;;;;;;;;;;26.50;43.40;;;;;;8263592;28;20114;-49
2021/06/23 00:22:40;;;;;;;1.43;1.20;;;26.50;43.40;;;;;;8266953;28;20326;-48
2021/06/23 00:26:41;;;;;;;;;;;26.40;43.40;;;;;;8263058;28;20499;-47
2021/06/23 00:30:41;;;;;;;1.30;1.20;;;26.40;43.90;;;;;;8263078;28;19910;-48
2021/06/23 00:34:42;;;;;;;;;;;26.50;43.50;;;;;;8262284;28;20073;-49
2021/06/23 00:38:42;;;;;;;1.57;1.20;;;26.40;43.40;;;;;;8266898;28;20008;-48
2021/06/23 00:42:43;;;;;;;;;;;26.40;43.50;;;;;;8262804;28;20404;-48
2021/06/23 00:46:43;;;;;;;1.27;1.00;;;26.40;43.50;;;;;;8261896;28;19956;-48
2021/06/23 00:50:44;;;;;;;1.42;1.30;;;26.40;43.50;;;;;;8262358;28;20031;-51
2021/06/23 00:54:48;;;;;;;;;;;26.40;43.40;;;;;;8262350;28;20051;-49
2021/06/23 00:58:49;;;;;;;1.95;1.30;;;26.40;43.40;;;;;;8265914;28;19918;-48
2021/06/23 01:02:50;;;;;;;;;;;26.40;43.50;;;;;;8246107;28;20047;-49
2021/06/23 01:06:51;;;;;;;1.70;1.37;;;26.40;43.50;;;;;;8253327;28;19921;-49
2021/06/23 01:10:52;;;;;;;1.30;1.20;;;26.40;43.50;;;;;;8261584;28;20037;-49
2021/06/23 01:14:53;;;;;;;;;;;26.40;43.50;;;;;;8266295;28;20054;-48
2021/06/23 01:18:56;;;;;;;2.15;1.40;;;26.40;43.40;;;;;;8260912;28;19921;-49
2021/06/23 01:22:56;;;;;;;1.48;0.90;;;26.30;43.40;;;;;;8261276;28;20101;-48
2021/06/23 01:26:57;;;;;;;1.92;1.02;;;26.30;43.40;;;;;;8261202;28;20132;-48
2021/06/23 01:30:57;;;;;;;1.40;1.10;;;26.30;43.40;;;;;;8261654;28;20039;-48
2021/06/23 01:34:59;;;;;;;;;;;26.40;43.40;;;;;;8279886;28;20108;-51
2021/06/23 01:39:00;;;;;;;1.20;1.02;;;26.30;43.40;;;;;;8260187;28;20000;-49
2021/06/23 01:43:00;;;;;;;1.23;1.10;;;26.30;43.40;;;;;;8260344;28;20515;-48
2021/06/23 01:47:01;;;;;;;;;;;26.30;43.40;;;;;;8260806;28;20035;-49
2021/06/23 01:51:03;;;;;;;1.20;1.10;;;26.30;43.40;;;;;;8265448;28;19996;-48
2021/06/23 01:55:04;;;;;;;2.10;1.10;;;26.30;43.40;;;;;;8259766;28;20061;-49
2021/06/23 01:59:05;;;;;;;1.15;1.02;;;26.30;43.50;;;;;;8260702;28;20050;-50
2021/06/23 02:03:35;;;;;;;1.73;1.30;;;26.30;43.40;;;;;;8260283;28;20070;-48
2021/06/23 02:07:41;;;;;;;2.17;1.58;;;26.20;43.40;;;;;;8260193;28;20042;-48
2021/06/23 02:11:47;;;;;;;1.30;1.20;;;26.20;43.40;;;;;;8265141;28;20046;-48
2021/06/23 02:15:50;;;;;;;1.92;1.40;;;26.20;43.40;;;;;;8260488;28;20065;-48
2021/06/23 02:19:53;;;;;;;1.33;1.13;;;26.20;43.40;;;;;;8260096;28;20098;-48
2021/06/23 02:23:54;;;;;;;3.28;1.40;;;26.20;43.40;;;;;;8260292;28;20085;-48
2021/06/23 02:27:54;;;;;;;1.98;1.20;;;26.20;43.40;;;;;;8264137;28;20078;-47
2021/06/23 02:31:55;;;;;;;;;;;26.20;44.00;;;;;;8259945;28;20069;-50
2021/06/23 02:35:56;;;;;;;1.53;1.17;;;26.20;43.40;;;;;;8259983;28;19917;-50
2021/06/23 02:39:57;;;;;;;2.58;1.10;;;26.20;43.40;;;;;;8259625;28;20038;-48
2021/06/23 02:43:58;;;;;;;2.33;1.00;;;26.20;43.50;;;;;;8258876;28;20043;-49
2021/06/23 02:47:59;;;;;;;1.05;0.95;;;26.20;43.40;;;;;;8232494;28;20519;-51
2021/06/23 02:52:00;;;;;;;;;;;26.20;43.50;;;;;;8255842;28;20046;-47
2021/06/23 02:56:01;;;;;;;3.03;1.23;;;26.20;43.50;;;;;;8266080;28;19920;-48
2021/06/23 03:00:04;;;;;;;;;;;26.20;43.50;;;;;;8266108;28;20030;-48
2021/06/23 03:04:04;;;;;;;1.10;1.00;;;26.10;43.50;;;;;;8269608;28;19917;-48
2021/06/23 03:08:07;;;;;;;2.35;1.23;;;26.10;43.50;;;;;;8265034;28;20042;-48
2021/06/23 03:12:08;;;;;;;1.23;1.02;;;26.10;43.50;;;;;;8246759;28;20053;-49
2021/06/23 03:16:08;;;;;;;;;;;26.10;43.50;;;;;;8242914;28;22695;-49
2021/06/23 03:20:10;;;;;;;1.10;1.00;;;26.10;43.50;;;;;;8266908;28;19914;-49
2021/06/23 03:24:10;;;;;;;2.83;1.65;;;26.10;43.50;;;;;;8268348;28;20420;-49
2021/06/23 03:28:11;;;;;;;4.10;1.25;;;26.10;43.50;;;;;;8264091;28;20069;-50
2021/06/23 03:32:12;;;;;;;1.15;1.00;;;26.10;43.50;;;;;;8264746;28;20467;-50
2021/06/23 03:36:12;;;;;;;1.75;1.10;;;26.10;43.50;;;;;;8264302;28;20049;-48
2021/06/23 03:40:13;;;;;;;;;;;26.10;43.50;;;;;;8268780;28;20034;-48
2021/06/23 03:44:14;;;;;;;1.23;1.00;;;26.10;43.50;;;;;;8264033;28;19921;-48
2021/06/23 03:48:15;;;;;;;1.40;1.30;;;26.00;43.40;;;;;;8263498;28;20492;-50
2021/06/23 03:52:15;;;;;;;1.30;0.90;;;26.10;43.50;;;;;;8263281;28;20129;-47
2021/06/23 03:56:17;;;;;;;1.30;1.02;;;26.00;43.50;;;;;;8268324;28;20035;-48
2021/06/23 04:00:18;;;;;;;;;;;26.00;43.40;;;;;;8264387;28;20054;-48
2021/06/23 04:04:18;;;;;;;1.13;1.08;;;26.00;43.50;;;;;;8258347;28;19941;-47
2021/06/23 04:08:20;;;;;;;1.10;0.98;;;26.00;43.50;;;;;;8230601;28;20511;-48
2021/06/23 04:12:21;;;;;;;1.92;1.15;;;26.00;43.50;;;;;;8251324;28;20532;-49
2021/06/23 04:16:21;;;;;;;1.33;1.20;;;26.00;43.50;;;;;;8267093;28;20122;-47
2021/06/23 04:20:22;;;;;;;;;;;26.00;43.50;;;;;;8263070;28;20065;-48
2021/06/23 04:24:23;;;;;;;2.10;1.00;;;26.00;43.50;;;;;;8262673;28;20032;-49
2021/06/23 04:28:23;;;;;;;;;;;25.90;43.40;;;;;;8262583;28;20042;-48
2021/06/23 04:32:24;;;;;;;1.23;1.13;;;26.00;43.50;;;;;;8266934;28;19926;-48
2021/06/23 04:36:24;;;;;;;1.00;0.95;;;26.00;43.50;;;;;;8262551;28;20042;-52
2021/06/23 04:40:25;;;;;;;;;;;25.90;43.40;;;;;;8262872;28;20035;-52
2021/06/23 04:44:26;;;;;;;1.47;1.10;;;25.90;43.40;;;;;;8262197;28;19917;-51
2021/06/23 04:48:26;;;;;;;;;;;25.90;43.50;;;;;;8266890;28;20511;-49
2021/06/23 04:52:27;;;;;;;2.20;1.13;;;25.90;43.40;;;;;;8261706;28;19945;-48
2021/06/23 04:56:27;;;;;;;;;;;25.90;43.50;;;;;;8262327;28;20178;-49
2021/06/23 05:00:28;;;;;;;1.50;1.10;;;25.90;43.40;;;;;;8261839;28;19914;-49
2021/06/23 05:04:28;;;;;;;4.63;1.40;;;25.90;43.40;;;;;;8261269;28;20556;-49
2021/06/23 05:08:29;;;;;;;;;;;25.90;43.40;;;;;;8266734;28;20045;-49
2021/06/23 05:12:30;;;;;;;2.17;1.50;;;25.90;43.40;;;;;;8261540;28;19922;-52
2021/06/23 05:16:31;;;;;;;1.35;1.20;;;25.90;43.40;;;;;;8260944;28;20026;-51
2021/06/23 05:20:32;;;;;;;0.93;0.82;;;26.00;43.30;;;;;;8261334;28;20030;-52
2021/06/23 05:24:33;;;;;;;1.00;1.00;;;26.10;43.10;;;;;;8243899;28;20401;-50
2021/06/23 05:28:34;;;;;;;;;;;26.20;43.00;;;;;;8234604;28;20125;-50
2021/06/23 05:32:34;;;;;;;2.47;1.10;;;26.30;42.60;;;;;;8261408;28;19921;-49
2021/06/23 05:36:35;;;;;;;;;;;26.50;42.40;;;;;;8261407;28;20030;-48
2021/06/23 05:40:38;;;;;;;0.80;0.80;;;26.70;42.10;;;;;;8261506;28;19925;-49
2021/06/23 05:44:39;;;;;;;1.15;1.05;;;26.70;41.80;;;;;;8264507;28;20077;-50
2021/06/23 05:48:39;;;;;;;;;;;26.80;41.70;;;;;;8260942;28;20042;-49
2021/06/23 05:52:40;;;;;;;1.30;1.10;;;26.80;41.70;;;;;;8235972;28;20406;-51
2021/06/23 05:56:40;;;;;;;1.15;1.05;;;26.80;41.80;;;;;;8260505;28;20439;-49
2021/06/23 06:00:41;;;;;;;;;;;26.70;41.80;;;;;;8265553;28;20380;-49
2021/06/23 06:04:41;;;;;;;1.73;0.93;;;26.70;41.90;;;;;;8260457;28;19917;-50
2021/06/23 06:08:42;;;;;;;1.45;1.00;;;26.60;42.00;;;;;;8260757;28;20031;-49
2021/06/23 06:12:42;;;;;;;;;;;26.50;42.10;;;;;;8260711;28;20046;-50
2021/06/23 06:16:43;;;;;;;1.07;1.00;;;26.50;42.30;;;;;;8233190;28;19925;-48
2021/06/23 06:20:43;;;;;;;;;;;26.40;42.30;;;;;;8244426;28;20117;-49
2021/06/23 06:24:44;;;;;;;1.67;1.10;;;26.40;42.50;;;;;;8260528;28;20390;-49
2021/06/23 06:28:44;;;;;;;;;;;26.40;42.60;;;;;;8266678;28;20506;-48
2021/06/23 06:32:45;;;;;;;1.37;1.03;;;26.30;42.60;;;;;;8266309;28;19976;-48
2021/06/23 06:36:45;;;;;;;;;;;26.30;42.70;;;;;;8271028;28;20030;-49
2021/06/23 06:40:47;;;;;;;0.90;0.90;;;26.30;42.70;;;;;;8265254;28;19914;-49
2021/06/23 06:44:47;;;;;;;0.93;0.90;;;26.30;42.80;;;;;;8266190;28;20057;-49
2021/06/23 06:48:48;;;;;;;;;;;26.20;42.80;;;;;;8266168;28;20034;-50
2021/06/23 06:52:49;;;;;;;1.00;0.80;;;26.20;42.90;;;;;;8269775;28;20379;-51
2021/06/23 06:56:49;;;;;;;;;;;26.30;43.00;;;;;;8266574;28;20377;-49
2021/06/23 07:00:50;;;;;;;1.83;1.10;;;26.20;43.60;;;;;;8265479;28;19910;-51
2021/06/23 07:04:50;;;;;;;1.00;1.00;;;26.20;43.10;;;;;;8257804;28;20050;-50
2021/06/23 07:08:51;;;;;;;;;;;26.20;43.00;;;;;;8237934;28;20039;-50
2021/06/23 07:12:51;;;;;;;1.10;1.00;;;26.20;43.10;;;;;;8263788;28;20359;-50
2021/06/23 07:16:52;;;;;;;1.98;1.17;;;26.10;43.00;;;;;;8265173;28;20027;-49
2021/06/23 07:20:52;;;;;;;;;;;26.10;43.10;;;;;;8265517;28;20411;-50
2021/06/23 07:24:53;;;;;;;1.20;1.10;;;26.10;43.10;;;;;;8264409;28;19922;-51
2021/06/23 07:28:55;;;;;;;2.05;0.82;;;26.10;43.10;;;;;;8269318;28;20062;-50
2021/06/23 07:32:59;;;;;;;1.30;1.20;;;26.10;43.00;;;;;;8264353;28;20054;-49
2021/06/23 07:37:03;;;;;;;1.73;1.00;;;26.20;43.10;;;;;;8263726;28;20062;-49
2021/06/23 07:41:06;;;;;;;1.33;1.10;;;26.10;43.10;;;;;;8263957;28;20035;-51
2021/06/23 07:45:07;;;;;;;0.90;0.90;;;26.20;43.10;;;;;;8268692;28;20112;-49
2021/06/23 07:49:09;;;;;;;;;;;26.10;43.00;;;;;;8263611;28;20085;-49
2021/06/23 07:53:19;;;;;;;1.77;1.33;;;26.10;43.00;;;;;;8263642;28;20013;-49
2021/06/23 08:02:28;;;;;;;1.25;1.15;;;26.20;43.10;;;;;;8263253;28;20029;-50
2021/06/23 08:10:30;;;;;;;1.27;1.17;;;26.20;43.10;;;;;;8267523;28;20080;-48
2021/06/23 08:14:30;;;;;;;1.63;1.38;;;26.20;43.00;;;;;;8263328;28;20054;-51
2021/06/23 08:18:31;;;;;;;0.98;0.98;;;26.20;43.00;;;;;;8263116;28;20018;-49
2021/06/23 08:22:32;;;;;;;;;;;26.20;43.00;;;;;;8263022;28;20027;-48
2021/06/23 08:26:32;;;;;;;0.97;0.97;;;26.20;43.00;;;;;;8267359;28;19984;-48
2021/06/23 08:30:33;;;;;;;;;;;26.20;43.00;;;;;;8263356;28;20065;-49
2021/06/23 08:34:33;;;;;;;2.60;1.30;;;26.20;43.00;;;;;;8261977;28;19926;-48
2021/06/23 08:38:34;;;;;;;;;;;26.20;43.00;;;;;;8263091;28;20439;-49
2021/06/23 08:42:35;;;;;;;1.03;0.90;;;26.20;43.00;;;;;;8265736;28;20000;-51
2021/06/23 08:46:39;;;;;;;;;;;26.20;43.00;;;;;;8264622;28;20034;-49
2021/06/23 08:50:40;;;;;;;1.40;1.10;;;26.20;43.00;;;;;;8261838;28;19914;-49
2021/06/23 08:54:42;;;;;;;2.05;1.20;;;26.20;43.00;;;;;;8261874;28;20141;-48
2021/06/23 08:58:43;;;;;;;1.15;1.00;;;26.30;43.10;;;;;;8261413;28;20030;-49
2021/06/23 09:02:45;;;;;;;1.40;1.10;;;26.30;43.10;;;;;;8266460;28;20038;-49
2021/06/23 09:06:55;;;;;;;1.17;1.08;;;26.30;43.10;;;;;;8261912;28;20487;-49
2021/06/23 09:10:56;;;;;;;1.30;1.15;;;26.30;43.00;;;;;;8261436;28;20487;-49
2021/06/23 09:14:58;;;;;;;1.30;1.20;;;26.30;43.00;;;;;;8261522;28;20050;-49
2021/06/23 09:18:58;;;;;;;1.25;1.15;;;26.30;43.00;;;;;;8265428;28;20026;-50
2021/06/23 09:22:59;;;;;;;;;;;26.30;43.00;;;;;;8262630;28;20069;-52
2021/06/23 09:27:00;;;;;;;1.67;1.30;;;26.40;43.00;;;;;;8261296;28;19976;-50
2021/06/23 09:31:01;;;;;;;;;;;26.40;43.00;;;;;;8261087;28;20092;-52
2021/06/23 09:35:02;;;;;;;1.17;1.08;;;26.40;43.00;;;;;;8261413;28;20055;-50
2021/06/23 09:39:05;;;;;;;1.30;1.10;;;26.40;43.00;;;;;;8265453;28;20046;-49
2021/06/23 09:43:05;;;;;;;1.00;0.90;;;26.40;43.00;;;;;;8260142;28;20042;-52
2021/06/23 09:47:06;;;;;;;;;;;26.40;43.00;;;;;;8261348;28;20456;-51
2021/06/23 09:51:12;;;;;;;1.17;1.07;;;26.40;43.00;;;;;;8260923;28;19910;-50
2021/06/23 09:55:12;;;;;;;1.10;1.00;;;26.40;43.00;;;;;;8264675;28;20039;-53
2021/06/23 09:59:23;;;;;;;;;;;26.40;43.00;;;;;;8260856;28;20407;-52
2021/06/23 10:03:29;;;;;;;1.38;1.00;;;26.40;42.90;;;;;;8246382;28;19922;-51
2021/06/23 10:07:39;;;;;;;1.30;1.20;;;26.50;43.00;;;;;;8234396;28;20054;-49
2021/06/23 10:11:41;;;;;;;1.30;1.20;;;26.50;43.00;;;;;;8234681;28;20042;-49
2021/06/23 10:15:43;;;;;;;1.15;1.05;;;26.50;42.90;;;;;;8262378;28;20043;-48
2021/06/23 10:19:45;;;;;;;1.70;1.55;;;26.50;42.80;;;;;;8265666;28;20037;-48
2021/06/23 10:23:46;;;;;;;1.30;1.20;;;26.50;42.80;;;;;;8266806;28;20034;-51
2021/06/23 10:27:49;;;;;;;1.27;1.17;;;26.50;42.80;;;;;;8266798;28;20503;-48
2021/06/23 10:31:50;;;;;;;1.38;1.23;;;26.50;42.80;;;;;;8267133;28;20053;-48
2021/06/23 10:35:51;;;;;;;;;;;26.60;42.80;;;;;;8270361;28;20038;-48
2021/06/23 10:39:53;;;;;;;1.75;1.58;;;26.60;42.80;;;;;;8265676;28;19910;-49
2021/06/23 10:44:18;;;;;;;1.42;1.13;;;26.60;42.80;;;;;;8266558;28;20122;-52
2021/06/23 10:48:19;;;;;;;1.52;1.42;;;26.60;42.80;;;;;;8265918;28;20046;-51
2021/06/23 10:52:19;;;;;;;;;;;26.60;42.70;;;;;;8270142;28;20069;-53
2021/06/23 10:56:41;;;;;;;2.67;1.87;;;26.60;42.80;;;;;;8266231;28;19917;-51
2021/06/23 11:00:46;;;;;;;2.25;1.70;;;26.70;42.80;;;;;;8265152;28;20042;-51
2021/06/23 11:05:02;;;;;;;1.67;1.48;;;26.70;42.80;;;;;;8264118;28;20034;-51
2021/06/23 11:09:21;;;;;;;1.73;1.52;;;26.70;42.70;;;;;;8263514;28;20495;-51
2021/06/23 11:13:33;;;;;;;1.70;1.60;;;26.70;42.70;;;;;;8266827;28;20042;-52
2021/06/23 11:17:34;;;;;;;1.52;1.40;;;26.70;42.70;;;;;;8235797;28;20043;-51
2021/06/23 11:21:34;;;;;;;;;;;26.70;42.70;;;;;;8255485;28;20038;-51
2021/06/23 11:25:36;;;;;;;1.90;1.70;;;26.70;42.70;;;;;;8262582;28;19980;-52
2021/06/23 11:29:37;;;;;;;2.45;1.83;;;26.70;42.70;;;;;;8263076;28;20468;-51
2021/06/23 11:33:38;;;;;;;1.92;1.63;;;26.70;42.60;;;;;;8267139;28;20081;-49
2021/06/23 11:37:39;;;;;;;;;;;26.80;42.70;;;;;;8263303;28;20045;-49
2021/06/23 11:41:39;;;;;;;2.00;1.77;;;26.80;42.60;;;;;;8262712;28;19914;-48
2021/06/23 11:45:40;;;;;;;;;;;26.80;42.60;;;;;;8262882;28;20546;-49
2021/06/23 11:49:42;;;;;;;2.20;1.70;;;26.80;42.60;;;;;;8266441;28;19918;-48
2021/06/23 11:53:42;;;;;;;2.33;1.50;;;26.80;42.60;;;;;;8262243;28;20101;-50
2021/06/23 11:57:43;;;;;;;;;;;26.80;42.60;;;;;;8262399;28;20043;-48
2021/06/23 12:01:43;;;;;;;1.67;1.57;;;26.80;42.60;;;;;;8261346;28;19917;-48
2021/06/23 12:05:45;;;;;;;3.03;1.92;;;26.80;42.60;;;;;;8227719;28;1037892;-48
2021/06/23 12:09:46;;;;;;;2.03;1.73;;;26.80;42.60;;;;;;8267851;28;20050;-48
2021/06/23 12:13:46;;;;;;;;;;;26.80;42.60;;;;;;8263372;28;20448;-48
2021/06/23 12:17:49;;;;;;;2.43;1.80;;;26.90;42.60;;;;;;8247705;28;20375;-52
2021/06/23 12:21:49;;;;;;;2.22;1.98;;;26.90;42.60;;;;;;8255640;28;20062;-49
2021/06/23 12:25:50;;;;;;;;;;;26.90;42.60;;;;;;8266785;28;20484;-52
2021/06/23 12:29:51;;;;;;;2.10;1.70;;;27.00;42.60;;;;;;8262882;28;19920;-50
2021/06/23 12:33:51;;;;;;;;;;;26.90;42.50;;;;;;8262867;28;20046;-50
2021/06/23 12:37:52;;;;;;;2.00;1.73;;;26.90;42.50;;;;;;8263282;28;19920;-49
2021/06/23 12:41:53;;;;;;;2.25;1.88;;;27.00;42.50;;;;;;8263702;28;20538;-50
2021/06/23 12:45:53;;;;;;;;;;;27.00;42.50;;;;;;8265446;28;20042;-50
2021/06/23 12:49:54;;;;;;;2.43;2.13;;;27.00;42.50;;;;;;8262305;28;19956;-48
2021/06/23 12:53:54;;;;;;;;;;;27.00;42.50;;;;;;8262421;28;20058;-51
2021/06/23 12:57:56;;;;;;;2.23;2.00;;;27.00;42.50;;;;;;8261664;28;20267;-49
2021/06/23 13:01:57;;;;;;;2.33;2.13;;;27.00;42.50;;;;;;8266453;28;20042;-49
2021/06/23 13:06:00;;;;;;;2.38;2.17;;;27.00;42.40;;;;;;8244333;28;20085;-49
2021/06/23 13:10:02;;;;;;;2.17;1.98;;;27.00;42.40;;;;;;8230890;28;20117;-50
2021/06/23 13:14:02;;;;;;;2.13;1.92;;;27.00;42.40;;;;;;8261847;28;20073;-52
2021/06/23 13:18:03;;;;;;;;;;;27.10;42.40;;;;;;8266682;28;20030;-52
2021/06/23 13:22:04;;;;;;;2.77;2.10;;;27.10;42.40;;;;;;8260687;28;20008;-49
2021/06/23 13:26:04;;;;;;;2.50;2.30;;;27.10;42.40;;;;;;8261776;28;20045;-49
2021/06/23 13:30:06;;;;;;;;;;;27.10;42.40;;;;;;8261764;28;20036;-50
2021/06/23 13:34:09;;;;;;;3.60;2.50;;;27.10;42.30;;;;;;8260258;28;19921;-49
2021/06/23 13:38:10;;;;;;;2.30;2.10;;;27.10;42.30;;;;;;8254511;28;20061;-53
2021/06/23 13:42:10;;;;;;;;;;;27.10;42.40;;;;;;8248785;28;20046;-52
2021/06/23 13:46:11;;;;;;;2.23;1.93;;;27.10;42.30;;;;;;8260515;28;19913;-53
2021/06/23 13:50:15;;;;;;;;;;;27.10;42.30;;;;;;8261601;28;20023;-50
2021/06/23 13:54:16;;;;;;;2.08;1.90;;;27.10;42.20;;;;;;8264970;28;19922;-50
2021/06/23 13:58:16;;;;;;;;;;;27.20;42.40;;;;;;8260850;28;20038;-51
2021/06/23 14:02:17;;;;;;;2.67;2.23;;;27.20;42.40;;;;;;8241749;28;20390;-49
2021/06/23 14:06:17;;;;;;;;;;;27.20;42.40;;;;;;8239361;28;20038;-53
2021/06/23 14:10:20;;;;;;;2.10;1.83;;;27.20;42.30;;;;;;8261317;28;19925;-51
2021/06/23 14:14:20;;;;;;;2.70;1.92;;;27.20;42.30;;;;;;8264193;28;20455;-51
2021/06/23 14:18:21;;;;;;;;;;;27.20;42.20;;;;;;8260910;28;20034;-52
2021/06/23 14:22:21;;;;;;;4.00;2.37;;;27.20;42.30;;;;;;8260235;28;19969;-50
2021/06/23 14:26:22;;;;;;;;;;;27.20;42.30;;;;;;8261013;28;20033;-50
2021/06/23 14:30:23;;;;;;;2.00;1.80;;;27.20;42.20;;;;;;8244400;28;20288;-48
2021/06/23 14:34:24;;;;;;;2.10;1.90;;;27.20;42.10;;;;;;8231890;28;20575;-48
2021/06/23 14:38:25;;;;;;;;;;;27.20;42.10;;;;;;8260403;28;20049;-48
2021/06/23 14:42:26;;;;;;;2.28;2.00;;;27.20;42.10;;;;;;8259607;28;19974;-49
2021/06/23 14:46:26;;;;;;;;;;;27.20;42.20;;;;;;8265767;28;20559;-49
2021/06/23 14:50:27;;;;;;;2.40;2.20;;;27.20;42.20;;;;;;8265839;28;19921;-48
2021/06/23 14:54:27;;;;;;;5.15;1.77;;;27.20;42.20;;;;;;8265512;28;20439;-51
2021/06/23 14:58:28;;;;;;;;;;;27.20;42.10;;;;;;8265021;28;20396;-52
2021/06/23 15:02:28;;;;;;;2.27;1.80;;;27.20;42.20;;;;;;8265338;28;19971;-49
2021/06/23 15:06:29;;;;;;;2.05;1.80;;;27.20;42.10;;;;;;8269724;28;20527;-52
2021/06/23 15:10:29;;;;;;;;;;;27.20;42.20;;;;;;8265162;28;20117;-53
2021/06/23 15:14:30;;;;;;;3.60;1.80;;;27.20;42.20;;;;;;8264969;28;20020;-53
2021/06/23 15:18:31;;;;;;;;;;;27.20;42.30;;;;;;8260396;28;20035;-53
2021/06/23 15:22:31;;;;;;;2.27;2.07;;;27.20;42.30;;;;;;8236533;28;20398;-51
2021/06/23 15:26:32;;;;;;;;;;;27.20;42.30;;;;;;8261124;28;20038;-53
2021/06/23 15:30:33;;;;;;;1.83;1.73;;;27.20;42.30;;;;;;8264833;28;19921;-49
2021/06/23 15:34:33;;;;;;;2.25;2.00;;;27.20;42.30;;;;;;8264201;28;20499;-48
2021/06/23 15:38:34;;;;;;;;;;;27.20;42.20;;;;;;8267743;28;20117;-49
2021/06/23 15:42:39;;;;;;;2.23;1.73;;;27.20;42.20;;;;;;8264203;28;19960;-48
2021/06/23 15:46:39;;;;;;;2.10;1.90;;;27.20;42.30;;;;;;8278594;28;20274;-49
2021/06/23 15:50:40;;;;;;;;;;;27.20;42.30;;;;;;8264500;28;20085;-49
2021/06/23 15:54:40;;;;;;;1.80;1.60;;;27.20;42.30;;;;;;8263770;28;19925;-52
2021/06/23 15:58:41;;;;;;;;;;;27.20;42.30;;;;;;8267020;28;20035;-52
2021/06/23 16:02:41;;;;;;;1.50;1.40;;;27.20;42.30;;;;;;8264167;28;19921;-52
2021/06/23 16:06:42;;;;;;;1.90;1.70;;;27.20;42.30;;;;;;8263512;28;20126;-52
2021/06/23 16:10:42;;;;;;;2.65;1.63;;;27.20;42.30;;;;;;8262949;28;20049;-50
2021/06/23 16:14:43;;;;;;;;;;;27.20;42.30;;;;;;8252956;28;20082;-50
2021/06/23 16:18:43;;;;;;;2.23;1.80;;;27.20;42.30;;;;;;8254063;28;19921;-49
2021/06/23 16:22:44;;;;;;;;;;;27.20;42.40;;;;;;8262758;28;20061;-49
2021/06/23 16:26:47;;;;;;;2.37;1.90;;;27.20;42.40;;;;;;8263074;28;19918;-50
2021/06/23 16:30:48;;;;;;;2.15;1.95;;;27.20;42.40;;;;;;8262897;28;20035;-52
2021/06/23 16:34:48;;;;;;;;;;;27.20;42.40;;;;;;8267251;28;20050;-53
2021/06/23 16:38:49;;;;;;;2.38;1.88;;;27.20;42.40;;;;;;8262601;28;19914;-52
2021/06/23 16:42:49;;;;;;;;;;;27.20;42.40;;;;;;8262704;28;20060;-52
2021/06/23 16:46:50;;;;;;;1.90;1.57;;;27.20;42.40;;;;;;8261866;28;20359;-52
2021/06/23 16:50:50;;;;;;;;;;;27.20;42.50;;;;;;8266849;28;20439;-53
2021/06/23 16:54:52;;;;;;;1.87;1.70;;;27.20;42.50;;;;;;8261551;28;19921;-53
2021/06/23 16:58:53;;;;;;;2.08;1.48;;;27.20;42.60;;;;;;8261959;28;20030;-53
2021/06/23 17:02:53;;;;;;;;;;;27.20;42.60;;;;;;8262391;28;20049;-50
2021/06/23 17:06:56;;;;;;;1.90;1.63;;;27.20;42.60;;;;;;8265668;28;19918;-52
2021/06/23 17:10:56;;;;;;;2.08;1.73;;;27.10;43.00;;;;;;8261280;28;20054;-53
2021/06/23 17:14:57;;;;;;;;;;;27.20;42.60;;;;;;8241077;28;20046;-52
2021/06/23 17:18:57;;;;;;;1.97;1.60;;;27.20;42.60;;;;;;8241001;28;20012;-51
2021/06/23 17:22:58;;;;;;;2.00;1.77;;;27.10;42.50;;;;;;8261652;28;20037;-53
2021/06/23 17:26:58;;;;;;;;;;;27.10;42.40;;;;;;8266408;28;20039;-52
2021/06/23 17:30:59;;;;;;;2.60;2.03;;;27.10;42.40;;;;;;8260710;28;19921;-52
2021/06/23 17:34:59;;;;;;;;;;;27.10;42.30;;;;;;8261410;28;20046;-53
2021/06/23 17:39:00;;;;;;;2.10;1.90;;;27.10;42.30;;;;;;8261356;28;19921;-52
2021/06/23 17:43:00;;;;;;;;;;;27.20;42.40;;;;;;8264841;28;20039;-52
2021/06/23 17:47:01;;;;;;;2.30;2.03;;;27.10;42.30;;;;;;8261187;28;19992;-52
2021/06/23 17:51:02;;;;;;;;;;;27.20;42.40;;;;;;8261721;28;20030;-52
2021/06/23 17:55:03;;;;;;;2.23;2.03;;;27.10;42.30;;;;;;8259608;28;19965;-52
2021/06/23 17:59:04;;;;;;;2.30;2.00;;;27.10;42.20;;;;;;8265089;28;20039;-52
2021/06/23 18:03:05;;;;;;;1.98;1.80;;;27.10;42.30;;;;;;8262270;28;20042;-52
2021/06/23 18:07:05;;;;;;;;;;;27.10;42.30;;;;;;8260679;28;20488;-53
2021/06/23 18:11:06;;;;;;;2.33;2.13;;;27.10;42.20;;;;;;8260946;28;19917;-49
2021/06/23 18:15:08;;;;;;;;;;;27.10;42.20;;;;;;8261078;28;21675;-50
2021/06/23 18:19:08;;;;;;;;;;;27.00;42.20;;;;;;8265265;28;19918;-50
2021/06/23 18:23:10;;;;;;;2.10;1.80;;;27.10;42.20;;;;;;8264324;28;19921;-51
2021/06/23 18:27:10;;;;;;;1.60;1.50;;;27.10;42.20;;;;;;8266739;28;20043;-51
2021/06/23 18:31:11;;;;;;;;;;;27.00;42.20;;;;;;8266780;28;20446;-52
2021/06/23 18:35:12;;;;;;;1.97;1.80;;;27.00;42.10;;;;;;8270740;28;19968;-49
2021/06/23 18:39:13;;;;;;;2.10;1.90;;;27.00;42.10;;;;;;8266319;28;20061;-50
2021/06/23 18:43:14;;;;;;;;;;;27.00;42.00;;;;;;8265982;28;20038;-52
2021/06/23 18:47:15;;;;;;;1.80;1.70;;;27.00;42.00;;;;;;8266671;28;19917;-52
2021/06/23 18:51:15;;;;;;;;;;;27.00;42.10;;;;;;8266267;28;20042;-51
2021/06/23 18:55:16;;;;;;;2.90;1.73;;;27.00;42.00;;;;;;8269807;28;19937;-51
2021/06/23 18:59:16;;;;;;;;;;;27.00;42.00;;;;;;8266033;28;20427;-52
2021/06/23 19:03:17;;;;;;;1.80;1.70;;;27.00;42.00;;;;;;8265669;28;19941;-52
2021/06/23 19:07:18;;;;;;;;;;;27.00;42.00;;;;;;8261704;28;20041;-52
2021/06/23 19:11:19;;;;;;;2.30;1.80;;;27.00;42.00;;;;;;8237539;28;19918;-51
2021/06/23 19:15:19;;;;;;;;;;;26.90;42.10;;;;;;8261187;28;20054;-51
2021/06/23 19:19:21;;;;;;;2.10;1.90;;;26.90;42.10;;;;;;8264580;28;20367;-52
2021/06/23 19:23:21;;;;;;;1.83;1.70;;;26.90;42.20;;;;;;8265008;28;20042;-52
2021/06/23 19:27:22;;;;;;;;;;;26.90;42.20;;;;;;8269702;28;20038;-52
2021/06/23 19:31:24;;;;;;;2.37;1.83;;;26.90;42.20;;;;;;8264448;28;19916;-52
2021/06/23 19:35:24;;;;;;;2.42;1.80;;;26.90;42.30;;;;;;8264569;28;20511;-53
2021/06/23 19:39:25;;;;;;;;;;;26.90;42.30;;;;;;8265350;28;20070;-52
2021/06/23 19:43:25;;;;;;;2.63;2.13;;;26.80;42.30;;;;;;8264117;28;20363;-52
2021/06/23 19:47:26;;;;;;;;;;;26.80;42.30;;;;;;8269300;28;20508;-52
2021/06/23 19:51:27;;;;;;;2.20;1.60;;;26.80;42.40;;;;;;8263985;28;19914;-52
2021/06/23 19:55:27;;;;;;;;;;;26.80;42.40;;;;;;8263824;28;20042;-52
2021/06/23 19:59:28;;;;;;;3.23;1.73;;;26.80;42.40;;;;;;8263724;28;19921;-52
2021/06/23 20:03:28;;;;;;;;;;;26.80;42.40;;;;;;8269184;28;20113;-52
2021/06/23 20:07:29;;;;;;;2.27;1.73;;;26.80;42.40;;;;;;8262588;28;19913;-48
2021/06/23 20:11:29;;;;;;;;;;;26.70;42.40;;;;;;8264003;28;20050;-48
2021/06/23 20:15:30;;;;;;;2.30;1.80;;;26.70;42.50;;;;;;8263485;28;19922;-51
2021/06/23 20:19:31;;;;;;;;;;;26.70;42.50;;;;;;8235972;28;20190;-49
2021/06/23 20:23:32;;;;;;;3.03;1.70;;;26.70;42.50;;;;;;8246795;28;19914;-51
2021/06/23 20:27:32;;;;;;;;;;;26.70;42.50;;;;;;8263612;28;20041;-52
2021/06/23 20:31:33;;;;;;;1.97;1.77;;;26.70;42.50;;;;;;8262178;28;20330;-48
2021/06/23 20:35:33;;;;;;;;;;;26.70;42.50;;;;;;8263196;28;20054;-49
2021/06/23 20:39:38;;;;;;;3.10;1.90;;;26.70;42.60;;;;;;8267190;28;19937;-49
2021/06/23 20:43:38;;;;;;;2.33;2.00;;;26.70;42.60;;;;;;8261508;28;20399;-51
2021/06/23 20:47:39;;;;;;;;;;;26.70;42.60;;;;;;8262794;28;20035;-47
2021/06/23 20:51:39;;;;;;;2.33;1.57;;;26.70;42.60;;;;;;8262005;28;19914;-50
2021/06/23 20:55:41;;;;;;;;;;;26.70;42.60;;;;;;8265145;28;20049;-48
2021/06/23 20:59:41;;;;;;;2.05;1.85;;;26.70;42.60;;;;;;8262418;28;19945;-49
2021/06/23 21:03:42;;;;;;;;;;;26.70;42.70;;;;;;8262774;28;20046;-48
2021/06/23 21:07:49;;;;;;;3.50;2.03;;;26.70;42.70;;;;;;8261553;28;19918;-52
2021/06/23 21:11:50;;;;;;;2.55;1.90;;;26.70;42.70;;;;;;8261957;28;20039;-51
2021/06/23 21:15:52;;;;;;;2.58;1.88;;;26.60;42.70;;;;;;8265556;28;20046;-53
2021/06/23 21:19:52;;;;;;;2.05;1.63;;;26.60;42.70;;;;;;8262127;28;20088;-51
2021/06/23 21:23:53;;;;;;;;;;;26.60;42.70;;;;;;8261655;28;20038;-50
2021/06/23 21:27:53;;;;;;;1.77;1.67;;;26.60;42.70;;;;;;8261000;28;19913;-50
2021/06/23 21:31:58;;;;;;;;;;;26.60;42.70;;;;;;8266200;28;20042;-52
2021/06/23 21:36:10;;;;;;;1.90;1.70;;;26.60;42.70;;;;;;8261249;28;20000;-52
2021/06/23 21:40:18;;;;;;;3.00;1.80;;;26.60;42.70;;;;;;8260855;28;20131;-49
2021/06/23 21:44:24;;;;;;;2.20;1.83;;;26.50;42.70;;;;;;8261252;28;20105;-52
2021/06/23 21:48:26;;;;;;;2.03;1.55;;;26.50;42.70;;;;;;8261106;28;20048;-52
2021/06/23 21:52:27;;;;;;;2.78;1.85;;;26.50;42.70;;;;;;8264764;28;20043;-49